Time;durP1;ratioP1;P1;durP2;ratioP2;P2;SDS_P1;SDS_P2;PMS_P1;PMS_P2;Temp;Humidity;BMP_temperature;BMP_pressure;BME280_temperature;BME280_humidity;BME280_pressure;Samples;Min_cycle;Max_cycle;Signal;HPM_P1;HPM_P2
2022/06/17 00:03:37;;;;;;;6.68;6.05;;;;;;;16.98;56.79;102338.69;10539890;28;20052;-73
2022/06/17 00:08:45;;;;;;;7.38;6.72;;;;;;;17.01;57.21;102329.22;10539488;28;20040;-73
2022/06/17 00:13:45;;;;;;;9.68;6.53;;;;;;;16.96;56.93;102322.44;10521651;28;20044;-73
2022/06/17 00:18:46;;;;;;;11.02;6.32;;;;;;;16.91;57.01;102316.75;10529491;28;20032;-73
2022/06/17 00:23:46;;;;;;;8.60;7.00;;;;;;;16.78;57.58;102313.94;10547194;28;20044;-73
2022/06/17 00:28:48;;;;;;;12.20;6.03;;;;;;;16.67;59.74;102311.78;10529517;28;20036;-73
2022/06/17 00:33:48;;;;;;;10.73;6.47;;;;;;;16.58;59.96;102318.47;10529564;28;20024;-73
2022/06/17 00:38:48;;;;;;;9.10;7.80;;;;;;;16.44;59.97;102302.00;10529622;28;20464;-73
2022/06/17 00:43:49;;;;;;;7.85;6.60;;;;;;;16.31;59.63;102312.03;10512140;28;20046;-73
2022/06/17 00:49:05;;;;;;;11.02;7.57;;;;;;;16.19;60.16;102303.53;10546154;28;20067;-73
2022/06/17 00:54:26;;;;;;;7.90;7.13;;;;;;;16.11;59.95;102307.25;10513853;28;20024;-72
2022/06/17 00:59:27;;;;;;;16.65;7.53;;;;;;;16.08;59.92;102306.81;10533752;28;20040;-73
2022/06/17 01:04:33;;;;;;;9.15;6.88;;;;;;;16.07;60.06;102316.91;10529267;28;20055;-73
2022/06/17 01:14:53;;;;;;;7.75;6.95;;;;;;;16.05;60.07;102305.34;10515708;28;20130;-73
2022/06/17 01:19:55;;;;;;;14.32;7.53;;;;;;;16.07;60.92;102313.31;10527570;28;20115;-73
2022/06/17 01:25:00;;;;;;;12.30;7.93;;;;;;;16.10;60.81;102311.03;10528012;28;20503;-72
2022/06/17 01:30:01;;;;;;;13.57;8.10;;;;;;;16.10;60.94;102302.84;10543990;28;20032;-72
2022/06/17 01:35:01;;;;;;;8.77;7.93;;;;;;;16.10;62.10;102304.72;10526987;28;20477;-72
2022/06/17 01:40:02;;;;;;;13.13;8.23;;;;;;;16.14;64.02;102295.09;10510209;28;20111;-72
2022/06/17 01:45:03;;;;;;;8.98;7.72;;;;;;;16.20;68.97;102288.81;10509780;28;20032;-72
2022/06/17 01:50:08;;;;;;;8.93;7.93;;;;;;;16.32;67.13;102286.38;10492602;28;20040;-72
2022/06/17 01:55:09;;;;;;;11.00;9.63;;;;;;;16.37;65.79;102289.31;10509979;28;20032;-72
2022/06/17 02:00:21;;;;;;;10.20;8.38;;;;;;;16.44;65.32;102302.00;10526073;28;20124;-72
2022/06/17 02:05:22;;;;;;;10.13;9.15;;;;;;;16.55;65.28;102299.72;10511142;28;20030;-72
2022/06/17 02:10:24;;;;;;;11.63;8.25;;;;;;;16.63;65.97;102299.56;10509856;28;20024;-72
2022/06/17 02:15:24;;;;;;;12.40;8.95;;;;;;;16.70;67.46;102309.47;10524804;28;20489;-72
2022/06/17 02:20:24;;;;;;;8.93;8.02;;;;;;;16.78;67.35;102303.00;10508574;28;20031;-72
2022/06/17 02:25:27;;;;;;;9.98;8.68;;;;;;;16.81;67.45;102301.75;10508481;28;20093;-72
2022/06/17 02:30:28;;;;;;;8.88;7.93;;;;;;;16.76;68.99;102304.28;10525021;28;20036;-72
2022/06/17 02:35:28;;;;;;;10.13;8.48;;;;;;;16.72;67.48;102304.66;10508324;28;20032;-72
2022/06/17 02:40:32;;;;;;;11.57;8.80;;;;;;;16.74;67.18;102308.03;10524014;28;20050;-72
2022/06/17 02:45:35;;;;;;;11.60;7.95;;;;;;;16.81;66.53;102305.34;10524342;28;20064;-72
2022/06/17 02:50:35;;;;;;;13.18;7.75;;;;;;;16.88;65.80;102303.50;10524190;28;20032;-72
2022/06/17 02:55:39;;;;;;;17.23;8.57;;;;;;;16.95;66.70;102298.88;10523995;28;20481;-72
2022/06/17 03:00:39;;;;;;;14.80;8.13;;;;;;;17.11;66.11;102303.13;10507384;28;20350;-72
2022/06/17 03:05:41;;;;;;;7.70;7.03;;;;;;;17.25;67.34;102293.03;10522969;28;20032;-72
2022/06/17 03:10:41;;;;;;;12.48;8.05;;;;;;;17.49;66.73;102294.34;10522826;28;20035;-72
2022/06/17 03:15:43;;;;;;;11.70;7.05;;;;;;;17.65;67.39;102293.94;10507000;28;20445;-72
2022/06/17 03:20:45;;;;;;;12.02;8.55;;;;;;;17.82;72.28;102293.53;10523252;28;20024;-72
2022/06/17 03:25:52;;;;;;;19.90;7.85;;;;;;;17.98;69.68;102298.56;10540456;28;20028;-72
2022/06/17 03:31:06;;;;;;;9.60;8.43;;;;;;;18.12;73.14;102288.44;10508107;28;20078;-72
2022/06/17 03:36:15;;;;;;;14.20;8.30;;;;;;;18.24;73.76;102292.19;10506397;28;20507;-72
2022/06/17 03:41:21;;;;;;;8.48;7.63;;;;;;;18.35;72.37;102290.72;10523548;28;20032;-72
2022/06/17 03:46:22;;;;;;;9.75;7.18;;;;;;;18.40;71.27;102292.78;10506166;28;20032;-72
2022/06/17 03:51:24;;;;;;;9.48;8.00;;;;;;;18.42;73.83;102285.19;10488480;28;20418;-72
2022/06/17 03:56:33;;;;;;;15.90;8.85;;;;;;;18.52;72.38;102280.94;10504818;28;20105;-72
2022/06/17 04:01:47;;;;;;;11.07;8.63;;;;;;;18.58;71.21;102279.22;10490795;28;20115;-72
2022/06/17 04:06:48;;;;;;;9.90;6.68;;;;;;;18.62;68.21;102283.22;10522173;28;20127;-72
2022/06/17 04:11:51;;;;;;;9.63;8.27;;;;;;;18.67;67.90;102285.31;10505628;28;20028;-72
2022/06/17 04:17:00;;;;;;;7.15;6.45;;;;;;;18.69;69.30;102281.28;10488246;28;20148;-72
2022/06/17 04:22:04;;;;;;;8.98;6.03;;;;;;;18.78;67.12;102287.41;10521061;28;20035;-72
2022/06/17 04:27:05;;;;;;;9.10;5.97;;;;;;;18.86;67.79;102278.06;10504641;28;20027;-72
2022/06/17 04:32:21;;;;;;;14.10;6.55;;;;;;;18.90;68.42;102276.59;10520626;28;20039;-70
2022/06/17 04:37:21;;;;;;;7.93;6.10;;;;;;;18.99;68.43;102276.09;10506119;28;20028;-71
2022/06/17 04:42:33;;;;;;;16.73;7.20;;;;;;;19.14;66.41;102259.31;10488004;28;20028;-70
2022/06/17 04:47:34;;;;;;;14.02;6.97;;;;;;;19.07;66.18;102283.22;10504494;28;20461;-71
2022/06/17 04:52:36;;;;;;;7.03;5.82;;;;;;;18.89;68.07;102275.75;10521203;28;20122;-71
2022/06/17 04:57:38;;;;;;;11.23;7.22;;;;;;;18.81;69.36;102267.75;10487752;28;20486;-71
2022/06/17 05:02:38;;;;;;;13.07;6.95;;;;;;;18.79;69.98;102264.38;10490868;28;20066;-71
2022/06/17 05:07:43;;;;;;;6.32;5.72;;;;;;;18.94;69.30;102256.69;10547016;28;20485;-72
2022/06/17 05:12:47;;;;;;;6.97;6.00;;;;;;;19.09;69.54;102253.66;10495051;28;20067;-71
2022/06/17 05:17:47;;;;;;;6.55;5.57;;;;;;;19.29;68.37;102246.09;10513026;28;20036;-72
2022/06/17 05:22:49;;;;;;;6.28;5.53;;;;;;;19.45;66.95;102232.88;10511227;28;20031;-71
2022/06/17 05:27:49;;;;;;;8.65;4.80;;;;;;;19.60;66.28;102241.63;10546031;28;20035;-72
2022/06/17 05:32:52;;;;;;;5.13;4.72;;;;;;;19.75;65.40;102244.09;10527156;28;20042;-71
2022/06/17 05:37:52;;;;;;;7.45;5.20;;;;;;;19.94;63.93;102236.69;10527126;28;20028;-71
2022/06/17 05:42:53;;;;;;;7.00;6.30;;;;;;;20.02;63.01;102250.13;10544953;28;20036;-71
2022/06/17 05:47:54;;;;;;;8.10;6.00;;;;;;;20.26;62.65;102250.28;10527545;28;20040;-72
2022/06/17 05:52:59;;;;;;;6.10;5.47;;;;;;;20.75;61.18;102232.78;10509945;28;20477;-72
2022/06/17 05:57:59;;;;;;;9.45;6.03;;;;;;;21.46;59.17;102224.72;10526866;28;20035;-71
2022/06/17 06:03:02;;;;;;;8.73;6.20;;;;;;;21.87;57.76;102222.94;10544280;28;20039;-72
2022/06/17 06:08:02;;;;;;;16.60;5.88;;;;;;;22.38;56.33;102219.38;10492496;28;20036;-72
2022/06/17 06:13:03;;;;;;;7.18;5.22;;;;;;;22.53;55.30;102213.34;10507873;28;20136;-72
2022/06/17 06:18:04;;;;;;;5.05;4.65;;;;;;;22.64;55.07;102217.13;10508496;28;20031;-72
2022/06/17 06:23:05;;;;;;;6.10;5.43;;;;;;;22.63;54.83;102208.00;10526138;28;20028;-72
2022/06/17 06:28:14;;;;;;;9.00;4.90;;;;;;;22.76;54.64;102209.63;10526044;28;20028;-72
2022/06/17 06:33:15;;;;;;;14.30;6.28;;;;;;;22.80;54.24;102216.34;10508855;28;20118;-72
2022/06/17 06:38:15;;;;;;;6.10;5.47;;;;;;;23.47;53.56;102209.22;10508665;28;20059;-72
2022/06/17 06:43:20;;;;;;;7.38;4.43;;;;;;;23.97;52.08;102236.00;10523631;28;20032;-72
2022/06/17 06:48:23;;;;;;;7.65;5.25;;;;;;;24.52;49.22;102221.25;10523583;28;20466;-72
2022/06/17 06:53:24;;;;;;;5.25;4.75;;;;;;;25.18;47.29;102230.28;10523958;28;20032;-72
2022/06/17 06:58:24;;;;;;;5.03;4.53;;;;;;;25.62;47.58;102218.13;10525012;28;20377;-72
2022/06/17 07:03:27;;;;;;;5.63;4.28;;;;;;;26.37;45.24;102208.56;10540454;28;20154;-72
2022/06/17 07:08:29;;;;;;;5.47;5.03;;;;;;;26.64;42.97;102213.09;10506911;28;20035;-72
2022/06/17 07:13:30;;;;;;;8.90;5.10;;;;;;;27.08;44.11;102227.34;10489943;28;20059;-72
2022/06/17 07:18:32;;;;;;;8.00;4.72;;;;;;;28.19;43.77;102244.25;10522784;28;20028;-72
2022/06/17 07:23:38;;;;;;;11.15;4.50;;;;;;;28.52;41.13;102236.34;10507288;28;20039;-72
2022/06/17 07:28:38;;;;;;;5.85;3.30;;;;;;;28.68;41.37;102234.28;10523694;28;20039;-72
2022/06/17 07:33:39;;;;;;;5.93;4.25;;;;;;;29.25;37.95;102221.66;10541073;28;20054;-72
2022/06/17 07:43:58;;;;;;;3.78;3.47;;;;;;;29.13;37.08;102201.66;10524433;28;20503;-72
2022/06/17 07:48:58;;;;;;;6.90;4.00;;;;;;;29.49;37.71;102215.31;10523055;28;20115;-73
2022/06/17 07:53:59;;;;;;;4.03;3.28;;;;;;;29.67;35.44;102220.16;10522591;28;20028;-73
2022/06/17 07:58:59;;;;;;;7.90;2.92;;;;;;;30.11;35.62;102222.75;10505731;28;20040;-72
2022/06/17 08:04:00;;;;;;;4.70;2.80;;;;;;;29.89;36.62;102214.06;10539201;28;20119;-73
2022/06/17 08:09:00;;;;;;;4.77;3.13;;;;;;;30.17;34.33;102225.47;10540475;28;20037;-73
2022/06/17 08:14:01;;;;;;;3.25;2.58;;;;;;;30.99;34.06;102226.06;10506488;28;20324;-73
2022/06/17 08:19:04;;;;;;;6.75;2.65;;;;;;;30.48;33.34;102220.38;10521749;28;20461;-73
2022/06/17 08:24:05;;;;;;;4.43;2.33;;;;;;;30.49;35.61;102219.22;10540077;28;20032;-73
2022/06/17 08:29:05;;;;;;;8.27;3.70;;;;;;;31.51;32.61;102231.63;10504679;28;20540;-74
2022/06/17 08:34:05;;;;;;;3.35;2.85;;;;;;;32.17;36.04;102250.00;10539448;28;20115;-73
2022/06/17 08:39:07;;;;;;;9.90;4.38;;;;;;;32.35;34.91;102233.38;10527387;28;20035;-73
2022/06/17 08:44:32;;;;;;;3.80;2.72;;;;;;;32.30;33.45;102234.31;10528939;28;20085;-73
2022/06/17 08:49:49;;;;;;;10.37;3.27;;;;;;;32.09;32.70;102225.50;10532171;28;20028;-74
2022/06/17 08:54:55;;;;;;;2.30;2.15;;;;;;;32.86;35.41;102226.63;10529917;28;20040;-73
2022/06/17 09:00:08;;;;;;;5.95;2.85;;;;;;;33.39;34.72;102227.88;10547155;28;20032;-73
2022/06/17 09:05:23;;;;;;;7.05;2.90;;;;;;;33.40;33.43;102235.97;10546399;28;20053;-73
2022/06/17 09:10:58;;;;;;;4.55;2.72;;;;;;;33.48;32.32;102232.41;10528672;28;20024;-73
2022/06/17 09:16:04;;;;;;;3.42;2.58;;;;;;;33.40;33.22;102244.38;10545260;28;20456;-73
2022/06/17 09:21:13;;;;;;;2.83;2.58;;;;;;;32.74;32.39;102246.84;10528417;28;20089;-73
2022/06/17 09:26:15;;;;;;;4.75;3.28;;;;;;;33.03;32.32;102238.03;10544497;28;20028;-73
2022/06/17 09:31:19;;;;;;;3.75;3.28;;;;;;;33.28;28.84;102235.72;10527255;28;20032;-73
2022/06/17 09:36:35;;;;;;;7.38;2.83;;;;;;;32.63;30.42;102231.38;10528400;28;20072;-73
2022/06/17 09:41:40;;;;;;;2.65;2.45;;;;;;;33.10;31.36;102218.75;10526802;28;20035;-73
2022/06/17 09:46:43;;;;;;;6.72;3.15;;;;;;;34.11;32.67;102210.75;10526558;28;20028;-73
2022/06/17 09:51:51;;;;;;;2.65;2.45;;;;;;;33.46;28.39;102200.97;10544205;28;20032;-73
2022/06/17 09:56:55;;;;;;;7.03;2.92;;;;;;;33.50;30.50;102207.63;10526433;28;20158;-73
2022/06/17 10:01:55;;;;;;;9.32;3.40;;;;;;;33.89;31.65;102197.59;10544597;28;20020;-73
2022/06/17 10:07:19;;;;;;;4.72;3.33;;;;;;;34.42;29.85;102195.75;10525328;28;20036;-74
2022/06/17 10:12:32;;;;;;;4.45;3.25;;;;;;;34.29;26.65;102188.28;10543062;28;20044;-74
2022/06/17 10:23:20;;;;;;;2.65;2.45;;;;;;;33.91;27.70;102184.03;10527518;28;20032;-73
2022/06/17 10:28:32;;;;;;;4.15;3.17;;;;;;;33.42;27.63;102187.91;10542879;28;20115;-73
2022/06/17 10:33:33;;;;;;;4.78;2.92;;;;;;;34.22;28.28;102169.91;10542184;28;20032;-73
2022/06/17 10:38:39;;;;;;;2.75;2.50;;;;;;;34.36;28.45;102166.13;10507891;28;20111;-73
2022/06/17 10:43:44;;;;;;;5.45;2.90;;;;;;;34.60;25.82;102162.88;10542173;28;20376;-73
2022/06/17 10:48:56;;;;;;;4.93;4.03;;;;;;;33.64;27.45;102157.00;10543415;28;20032;-73
2022/06/17 10:53:58;;;;;;;6.57;3.75;;;;;;;33.56;27.54;102155.78;10507986;28;20024;-73
2022/06/17 10:59:06;;;;;;;5.18;4.00;;;;;;;34.61;28.69;102133.56;10505945;28;20495;-73
2022/06/17 11:04:27;;;;;;;3.95;3.58;;;;;;;34.73;27.98;102119.66;10523942;28;20043;-73
2022/06/17 11:09:40;;;;;;;5.10;3.75;;;;;;;34.77;28.82;102117.81;10506287;28;20032;-73
2022/06/17 11:14:46;;;;;;;5.38;4.18;;;;;;;35.40;29.74;102109.72;10540998;28;20094;-73
2022/06/17 11:19:49;;;;;;;5.70;3.45;;;;;;;36.13;29.48;102105.88;10541554;28;20036;-73
2022/06/17 11:24:53;;;;;;;4.38;3.65;;;;;;;35.36;27.85;102111.56;10506262;28;20380;-73
2022/06/17 11:29:54;;;;;;;4.68;3.55;;;;;;;35.44;25.80;102121.16;10523132;28;20024;-73
2022/06/17 11:35:01;;;;;;;6.00;3.83;;;;;;;36.06;27.23;102124.19;10505847;28;20457;-73
2022/06/17 11:40:16;;;;;;;5.70;3.13;;;;;;;36.01;26.14;102118.69;10521697;28;20086;-73
2022/06/17 11:45:25;;;;;;;4.07;3.05;;;;;;;35.26;26.84;102121.22;10489445;28;20115;-73
2022/06/17 11:50:32;;;;;;;5.72;3.03;;;;;;;34.75;27.66;102114.53;10521544;28;20024;-73
2022/06/17 11:55:33;;;;;;;3.58;3.25;;;;;;;35.27;27.82;102108.78;10522574;28;20032;-73
2022/06/17 12:00:45;;;;;;;7.05;4.15;;;;;;;35.60;28.08;102103.34;10504550;28;20085;-74
2022/06/17 12:06:00;;;;;;;2.90;2.72;;;;;;;36.11;27.93;102092.13;10505545;28;20480;-73
2022/06/17 12:11:05;;;;;;;3.85;3.47;;;;;;;34.45;25.01;102079.78;10542026;28;20036;-73
2022/06/17 12:16:14;;;;;;;3.50;2.90;;;;;;;34.37;27.97;102081.44;10512932;28;20127;-73
2022/06/17 12:21:39;;;;;;;3.45;3.20;;;;;;;33.94;26.42;102070.94;10513520;28;20444;-73
2022/06/17 12:27:17;;;;;;;3.63;3.30;;;;;;;34.14;27.65;102083.59;10547845;28;20082;-73
2022/06/17 12:32:48;;;;;;;2.90;2.28;;;;;;;34.62;26.88;102073.31;10426002;28;20048;-72
2022/06/17 12:37:49;;;;;;;2.70;2.50;;;;;;;34.61;24.95;102054.78;10549295;28;20039;-73
2022/06/17 12:43:00;;;;;;;3.17;2.90;;;;;;;33.76;26.02;102046.78;10547020;28;20031;-73
2022/06/17 12:48:19;;;;;;;2.97;2.55;;;;;;;34.52;27.51;102039.88;10530119;28;20336;-73
2022/06/17 12:53:38;;;;;;;3.80;3.40;;;;;;;35.29;27.47;102035.22;10545773;28;20054;-72
2022/06/17 12:59:06;;;;;;;2.38;2.28;;;;;;;35.61;25.57;102020.50;10546954;28;20039;-73
2022/06/17 13:04:12;;;;;;;4.63;2.78;;;;;;;35.53;26.99;102009.28;10531738;28;20035;-73
2022/06/17 13:09:46;;;;;;;3.13;2.78;;;;;;;35.00;27.13;102011.47;10546221;28;20077;-72
2022/06/17 13:14:58;;;;;;;3.83;2.60;;;;;;;35.10;26.54;102010.28;10546637;28;20546;-72
2022/06/17 13:20:25;;;;;;;3.03;2.63;;;;;;;35.01;26.55;102006.69;10528345;28;20111;-72
2022/06/17 13:25:40;;;;;;;8.48;2.47;;;;;;;35.10;26.63;102010.28;10536363;28;20044;-73
2022/06/17 13:30:55;;;;;;;4.28;2.70;;;;;;;34.56;25.54;101988.28;10510749;28;20032;-72
2022/06/17 13:36:00;;;;;;;2.63;2.53;;;;;;;34.67;26.47;101991.56;10510979;28;20024;-73
2022/06/17 13:41:14;;;;;;;6.35;3.60;;;;;;;34.64;25.46;101992.22;10511223;28;20453;-72
2022/06/17 13:46:26;;;;;;;5.20;2.53;;;;;;;34.43;26.66;101986.44;10528074;28;20051;-72
2022/06/17 13:51:32;;;;;;;4.40;3.15;;;;;;;34.62;27.23;101981.34;10510906;28;20443;-72
2022/06/17 13:56:57;;;;;;;2.70;2.50;;;;;;;35.23;27.75;101986.72;10545102;28;20354;-72
2022/06/17 14:02:11;;;;;;;6.43;3.35;;;;;;;35.07;26.35;101978.03;10525991;28;20174;-72
2022/06/17 14:07:11;;;;;;;5.55;2.47;;;;;;;34.72;27.62;101972.53;10544502;28;20346;-72
2022/06/17 14:12:46;;;;;;;2.40;2.30;;;;;;;34.23;25.86;101948.63;10543716;28;20035;-72
2022/06/17 14:17:49;;;;;;;4.28;3.13;;;;;;;34.22;27.06;101944.16;10542719;28;20052;-73
2022/06/17 14:23:35;;;;;;;2.58;2.38;;;;;;;34.12;27.28;101952.94;10543293;28;20031;-72
2022/06/17 14:28:38;;;;;;;5.22;2.33;;;;;;;34.15;27.26;101929.78;10529124;28;20032;-72
2022/06/17 14:33:42;;;;;;;3.28;2.80;;;;;;;33.65;27.93;101944.31;10508042;28;20036;-72
2022/06/17 14:39:00;;;;;;;3.63;2.33;;;;;;;33.73;28.28;101929.47;10525311;28;20020;-72
2022/06/17 14:44:13;;;;;;;6.25;3.10;;;;;;;34.06;27.76;101932.59;10509474;28;20036;-72
2022/06/17 14:49:45;;;;;;;2.80;2.50;;;;;;;33.09;28.19;101915.97;10525725;28;20032;-72
2022/06/17 14:54:58;;;;;;;3.15;2.53;;;;;;;33.31;28.24;101913.06;10541422;28;20377;-72
2022/06/17 15:00:16;;;;;;;5.80;2.13;;;;;;;33.20;28.18;101902.44;10523712;28;20419;-72
2022/06/17 15:05:20;;;;;;;4.15;3.15;;;;;;;33.00;27.66;101899.13;10508753;28;20028;-72
2022/06/17 15:10:34;;;;;;;3.13;2.88;;;;;;;33.07;28.64;101907.88;10540815;28;20031;-72
2022/06/17 15:15:37;;;;;;;11.18;2.90;;;;;;;33.02;28.42;101899.59;10508098;28;20040;-72
2022/06/17 15:20:38;;;;;;;2.45;2.22;;;;;;;33.05;28.95;101893.31;10506642;28;20035;-72
2022/06/17 15:25:41;;;;;;;3.33;2.85;;;;;;;32.87;28.07;101875.59;10523376;28;20036;-72
2022/06/17 15:30:44;;;;;;;6.22;2.38;;;;;;;32.94;28.56;101860.28;10522715;28;20020;-72
2022/06/17 15:35:44;;;;;;;6.97;3.33;;;;;;;33.05;29.50;101867.25;10539982;28;20126;-72
2022/06/17 15:40:45;;;;;;;2.28;2.17;;;;;;;32.93;29.10;101861.41;10541017;28;20179;-72
2022/06/17 15:45:46;;;;;;;2.67;2.47;;;;;;;32.68;29.72;101851.78;10522202;28;20040;-72
2022/06/17 15:50:49;;;;;;;2.83;2.63;;;;;;;32.64;30.10;101835.63;10522467;28;20264;-72
2022/06/17 15:55:50;;;;;;;2.70;2.50;;;;;;;32.35;30.05;101830.50;10522066;28;20027;-72
2022/06/17 16:00:50;;;;;;;9.17;3.73;;;;;;;32.38;30.44;101845.84;10540446;28;20040;-72
2022/06/17 16:05:57;;;;;;;2.67;2.47;;;;;;;32.17;30.89;101842.81;10521942;28;20275;-72
2022/06/17 16:11:10;;;;;;;4.18;3.22;;;;;;;32.09;31.58;101830.38;10522535;28;20269;-72
2022/06/17 16:16:21;;;;;;;2.83;2.58;;;;;;;31.88;31.93;101826.44;10540060;28;20437;-72
2022/06/17 16:21:30;;;;;;;3.25;2.95;;;;;;;31.69;32.31;101812.66;10539650;28;20427;-72
2022/06/17 16:26:30;;;;;;;2.75;2.55;;;;;;;31.35;32.89;101827.19;10538880;28;20077;-72
2022/06/17 16:31:31;;;;;;;2.80;2.53;;;;;;;31.08;33.47;101831.72;10539414;28;20052;-72
2022/06/17 16:36:34;;;;;;;6.63;4.05;;;;;;;30.78;33.51;101824.78;10521294;28;20032;-72
2022/06/17 16:47:04;;;;;;;7.68;3.08;;;;;;;30.52;34.50;101813.28;10509793;28;20493;-72
2022/06/17 16:52:07;;;;;;;4.30;3.92;;;;;;;30.44;34.74;101816.78;10522736;28;20078;-72
2022/06/17 16:57:20;;;;;;;32.80;15.75;;;;;;;30.48;35.60;101806.66;10505103;28;20063;-72
2022/06/17 17:02:21;;;;;;;18.13;9.65;;;;;;;30.35;35.78;101805.53;10529916;28;20032;-71
2022/06/17 17:07:23;;;;;;;17.92;6.15;;;;;;;30.28;35.24;101808.72;10511748;28;20469;-71
2022/06/17 17:12:23;;;;;;;3.65;2.80;;;;;;;30.19;35.73;101816.16;10511990;28;20028;-72
2022/06/17 17:17:24;;;;;;;4.10;3.15;;;;;;;29.89;36.40;101809.97;10546656;28;20047;-72
2022/06/17 17:22:30;;;;;;;3.20;2.97;;;;;;;29.74;36.15;101809.38;10528200;28;20028;-71
2022/06/17 17:27:31;;;;;;;;;;;;;;;29.61;36.33;101809.06;10512124;28;20276;-71
2022/06/17 17:32:31;;;;;;;12.43;3.28;;;;;;;29.60;36.30;101804.59;10545885;28;20349;-71
2022/06/17 17:37:33;;;;;;;3.03;2.70;;;;;;;29.38;37.09;101813.56;10545256;28;20032;-72
2022/06/17 17:42:34;;;;;;;2.78;2.58;;;;;;;29.04;36.21;101818.56;10544919;28;20040;-71
2022/06/17 17:47:34;;;;;;;3.05;2.83;;;;;;;28.83;35.38;101809.59;10545039;28;20384;-71
2022/06/17 17:52:35;;;;;;;3.00;2.57;;;;;;;28.70;35.11;101805.59;10544683;28;20028;-72
2022/06/17 17:57:35;;;;;;;2.60;2.40;;;;;;;28.59;35.07;101804.03;10543749;28;20280;-72
2022/06/17 18:02:35;;;;;;;3.50;3.03;;;;;;;28.36;35.11;101808.47;10526017;28;20032;-71
2022/06/17 18:07:36;;;;;;;3.43;3.03;;;;;;;28.23;35.25;101804.41;10543924;28;20085;-71
2022/06/17 18:12:36;;;;;;;4.00;3.67;;;;;;;28.23;35.14;101804.41;10543922;28;20271;-71
2022/06/17 18:17:40;;;;;;;5.53;3.50;;;;;;;28.05;35.88;101795.69;10508358;28;20770;-71
2022/06/17 18:22:40;;;;;;;4.20;3.55;;;;;;;27.97;35.80;101785.19;10525901;28;20154;-72
2022/06/17 18:27:41;;;;;;;4.60;3.38;;;;;;;27.78;36.10;101778.69;10526186;28;20414;-72
2022/06/17 18:32:46;;;;;;;3.95;3.55;;;;;;;27.74;35.89;101794.31;10508349;28;20381;-72
2022/06/17 18:37:47;;;;;;;10.10;4.73;;;;;;;27.71;36.02;101794.88;10524892;28;20031;-71
2022/06/17 18:42:47;;;;;;;4.88;3.88;;;;;;;27.65;36.25;101780.19;10542934;28;20285;-68
2022/06/17 18:47:48;;;;;;;5.28;3.13;;;;;;;27.45;36.58;101789.53;10542922;28;20078;-68
2022/06/17 18:52:49;;;;;;;5.28;3.13;;;;;;;27.29;36.99;101777.69;10524102;28;20090;-75
2022/06/17 18:57:50;;;;;;;5.78;3.60;;;;;;;27.19;37.47;101780.53;10541399;28;20046;-75
2022/06/17 19:02:52;;;;;;;3.53;3.22;;;;;;;27.03;37.63;101771.44;10541898;28;20028;-75
2022/06/17 19:18:32;;;;;;;3.97;3.67;;;;;;;26.68;37.38;101755.78;10540770;28;20048;-75
2022/06/17 19:23:33;;;;;;;4.30;3.90;;;;;;;26.57;37.30;101757.75;10540527;28;20120;-75
2022/06/17 19:28:34;;;;;;;14.10;4.18;;;;;;;26.41;38.16;101748.63;10523201;28;20036;-75
2022/06/17 19:33:34;;;;;;;4.97;2.97;;;;;;;26.31;38.41;101750.63;10522883;28;20474;-75
2022/06/17 19:38:37;;;;;;;5.03;2.60;;;;;;;26.24;38.23;101742.59;10522752;28;20059;-75
2022/06/17 19:43:37;;;;;;;3.67;3.17;;;;;;;26.18;38.56;101752.88;10505924;28;20429;-75
2022/06/17 19:48:38;;;;;;;3.45;3.25;;;;;;;26.09;38.99;101765.66;10540562;28;20051;-75
2022/06/17 19:53:38;;;;;;;3.28;3.08;;;;;;;25.94;39.60;101769.31;10524158;28;20164;-74
2022/06/17 19:58:39;;;;;;;3.80;3.50;;;;;;;25.82;39.57;101762.41;10540860;28;20043;-74
2022/06/17 20:03:39;;;;;;;4.15;3.35;;;;;;;25.64;39.80;101770.13;10540734;28;20377;-75
2022/06/17 20:08:39;;;;;;;6.07;3.88;;;;;;;25.46;40.96;101767.91;10539964;28;20028;-75
2022/06/17 20:13:40;;;;;;;3.25;3.05;;;;;;;25.34;40.64;101767.38;10540968;28;20035;-74
2022/06/17 20:18:40;;;;;;;2.60;2.47;;;;;;;25.24;40.51;101762.66;10540410;28;20123;-76
2022/06/17 20:23:42;;;;;;;3.80;3.15;;;;;;;25.11;40.71;101766.75;10539765;28;20115;-75
2022/06/17 20:28:43;;;;;;;3.33;2.72;;;;;;;25.00;40.45;101776.13;10540683;28;20036;-75
2022/06/17 20:33:44;;;;;;;4.75;3.47;;;;;;;24.88;40.74;101778.31;10544085;28;20059;-75
2022/06/17 20:38:45;;;;;;;4.90;3.47;;;;;;;24.72;40.85;101769.94;10547686;28;20457;-75
2022/06/17 20:43:46;;;;;;;3.83;3.17;;;;;;;24.63;41.50;101768.78;10548012;28;20035;-75
2022/06/17 20:54:09;;;;;;;4.78;4.05;;;;;;;24.45;42.74;101760.97;10547349;28;20040;-74
2022/06/17 20:59:09;;;;;;;4.60;3.67;;;;;;;24.30;45.07;101754.22;10513682;28;20048;-74
2022/06/17 21:04:09;;;;;;;7.00;4.05;;;;;;;24.25;44.76;101745.91;10547845;28;20103;-74
2022/06/17 21:09:15;;;;;;;9.10;4.35;;;;;;;24.15;44.79;101745.84;10511693;28;20435;-75
2022/06/17 21:14:15;;;;;;;3.63;3.42;;;;;;;24.09;45.60;101741.38;10513063;28;20028;-74
2022/06/17 21:19:16;;;;;;;3.10;2.90;;;;;;;24.03;46.34;101734.16;10546054;28;20443;-75
2022/06/17 21:24:16;;;;;;;12.50;3.75;;;;;;;23.99;48.08;101731.06;10527681;28;20106;-69
2022/06/17 21:29:17;;;;;;;3.92;3.63;;;;;;;23.97;47.42;101726.94;10545306;28;20115;-69
2022/06/17 21:34:17;;;;;;;4.95;3.50;;;;;;;23.91;48.43;101723.28;10545910;28;20036;-69
2022/06/17 21:39:22;;;;;;;7.13;4.65;;;;;;;23.82;50.25;101720.19;10510812;28;20176;-68
2022/06/17 21:44:22;;;;;;;7.50;3.63;;;;;;;23.78;50.51;101718.22;10525735;28;20111;-68
2022/06/17 21:49:23;;;;;;;4.95;4.15;;;;;;;23.76;50.39;101721.25;10526725;28;20531;-69
2022/06/17 21:54:25;;;;;;;3.22;3.00;;;;;;;23.68;50.91;101727.25;10510035;28;20071;-69
2022/06/17 21:59:33;;;;;;;10.13;4.78;;;;;;;23.63;51.62;101716.16;10492700;28;20042;-69
2022/06/17 22:04:34;;;;;;;11.88;8.43;;;;;;;23.56;52.20;101718.31;10526095;28;20054;-68
2022/06/17 22:09:37;;;;;;;5.78;4.50;;;;;;;23.52;51.20;101723.53;10526362;28;20089;-68
2022/06/17 22:14:38;;;;;;;4.10;3.70;;;;;;;23.42;52.96;101726.19;10508154;28;20048;-68
2022/06/17 22:19:39;;;;;;;2.47;2.30;;;;;;;23.40;50.50;101725.66;10527010;28;20032;-68
2022/06/17 22:24:40;;;;;;;12.25;7.90;;;;;;;23.30;52.29;101726.41;10542751;28;20422;-69
2022/06/17 22:29:41;;;;;;;5.38;4.47;;;;;;;23.20;54.74;101718.03;10541627;28;20081;-68
2022/06/17 22:34:42;;;;;;;7.22;4.10;;;;;;;23.12;55.51;101716.56;10542488;28;20032;-68
2022/06/17 22:39:43;;;;;;;8.00;4.60;;;;;;;23.05;56.74;101715.09;10541207;28;20028;-68
2022/06/17 22:44:45;;;;;;;10.45;4.70;;;;;;;22.98;55.75;101710.63;10542314;28;20039;-71
2022/06/17 22:49:46;;;;;;;6.53;4.38;;;;;;;22.93;54.66;101710.56;10507641;28;20136;-71
2022/06/17 22:54:47;;;;;;;7.45;4.70;;;;;;;22.81;57.30;101700.72;10523203;28;20170;-71
2022/06/17 22:59:47;;;;;;;5.65;3.70;;;;;;;22.79;56.49;101700.19;10506398;28;20111;-71
2022/06/17 23:05:03;;;;;;;4.85;3.70;;;;;;;22.70;58.54;101702.56;10540359;28;20496;-71
2022/06/17 23:10:11;;;;;;;5.88;3.63;;;;;;;22.62;59.53;101690.06;10510030;28;20051;-71
2022/06/17 23:15:12;;;;;;;6.88;3.58;;;;;;;22.62;58.83;101694.72;10490554;28;20060;-70
2022/06/17 23:20:13;;;;;;;6.13;5.53;;;;;;;22.55;57.35;101696.84;10506053;28;20032;-71
2022/06/17 23:25:21;;;;;;;11.70;7.15;;;;;;;22.48;58.22;101689.59;10540239;28;20032;-71
2022/06/17 23:30:22;;;;;;;5.25;4.50;;;;;;;22.42;59.11;101687.88;10522182;28;20040;-71
2022/06/17 23:35:27;;;;;;;6.32;5.82;;;;;;;22.38;59.27;101695.00;10504932;28;20050;-71
2022/06/17 23:40:27;;;;;;;9.00;4.70;;;;;;;22.36;58.23;101691.66;10521594;28;20028;-71
2022/06/17 23:45:28;;;;;;;4.22;3.25;;;;;;;22.31;59.25;101688.88;10538369;28;20444;-71
2022/06/17 23:50:32;;;;;;;6.47;4.90;;;;;;;22.24;56.93;101686.28;10505388;28;20123;-70
2022/06/17 23:55:34;;;;;;;6.00;4.93;;;;;;;22.17;57.87;101687.56;10540171;28;20123;-71
